sensor_id;sensor_type;location;lat;lon;timestamp;P1;durP1;ratioP1;P2;durP2;ratioP2
26562;SDS011;14217;50.986;5.826;2023-06-26T00:00:47;2.38;;;2.17;;
26562;SDS011;14217;50.986;5.826;2023-06-26T00:05:50;2.88;;;2.58;;
26562;SDS011;14217;50.986;5.826;2023-06-26T00:10:52;5.97;;;3.75;;
26562;SDS011;14217;50.986;5.826;2023-06-26T00:15:54;4.25;;;3.85;;
26562;SDS011;14217;50.986;5.826;2023-06-26T00:20:56;4.75;;;4.25;;
26562;SDS011;14217;50.986;5.826;2023-06-26T00:25:58;5.50;;;5.05;;
26562;SDS011;14217;50.986;5.826;2023-06-26T00:31:00;5.50;;;5.00;;
26562;SDS011;14217;50.986;5.826;2023-06-26T00:36:02;4.82;;;4.43;;
26562;SDS011;14217;50.986;5.826;2023-06-26T00:41:04;4.57;;;3.88;;
26562;SDS011;14217;50.986;5.826;2023-06-26T00:46:14;3.42;;;3.13;;
26562;SDS011;14217;50.986;5.826;2023-06-26T00:51:16;4.13;;;3.58;;
26562;SDS011;14217;50.986;5.826;2023-06-26T00:56:18;4.60;;;4.18;;
26562;SDS011;14217;50.986;5.826;2023-06-26T01:01:21;3.63;;;3.33;;
26562;SDS011;14217;50.986;5.826;2023-06-26T01:06:27;6.93;;;3.33;;
26562;SDS011;14217;50.986;5.826;2023-06-26T01:11:33;3.55;;;2.50;;
26562;SDS011;14217;50.986;5.826;2023-06-26T01:16:35;3.25;;;2.95;;
26562;SDS011;14217;50.986;5.826;2023-06-26T01:21:39;2.88;;;2.67;;
26562;SDS011;14217;50.986;5.826;2023-06-26T01:26:44;4.60;;;3.28;;
26562;SDS011;14217;50.986;5.826;2023-06-26T01:31:47;2.90;;;2.70;;
26562;SDS011;14217;50.986;5.826;2023-06-26T01:36:51;3.38;;;3.08;;
26562;SDS011;14217;50.986;5.826;2023-06-26T01:41:53;2.80;;;2.55;;
26562;SDS011;14217;50.986;5.826;2023-06-26T01:57:28;3.00;;;2.47;;
26562;SDS011;14217;50.986;5.826;2023-06-26T02:02:33;4.35;;;3.05;;
26562;SDS011;14217;50.986;5.826;2023-06-26T02:07:36;2.45;;;2.17;;
26562;SDS011;14217;50.986;5.826;2023-06-26T02:12:38;3.20;;;2.08;;
26562;SDS011;14217;50.986;5.826;2023-06-26T02:17:40;2.90;;;2.70;;
26562;SDS011;14217;50.986;5.826;2023-06-26T02:22:42;3.38;;;2.65;;
26562;SDS011;14217;50.986;5.826;2023-06-26T02:27:44;2.67;;;2.47;;
26562;SDS011;14217;50.986;5.826;2023-06-26T02:32:47;2.33;;;2.00;;
26562;SDS011;14217;50.986;5.826;2023-06-26T02:37:49;2.40;;;2.20;;
26562;SDS011;14217;50.986;5.826;2023-06-26T02:42:51;3.28;;;2.97;;
26562;SDS011;14217;50.986;5.826;2023-06-26T02:47:53;2.70;;;2.40;;
26562;SDS011;14217;50.986;5.826;2023-06-26T02:52:55;4.65;;;2.97;;
26562;SDS011;14217;50.986;5.826;2023-06-26T02:57:57;2.40;;;2.20;;
26562;SDS011;14217;50.986;5.826;2023-06-26T03:02:59;2.47;;;2.28;;
26562;SDS011;14217;50.986;5.826;2023-06-26T03:08:02;2.72;;;2.22;;
26562;SDS011;14217;50.986;5.826;2023-06-26T03:13:04;2.20;;;1.98;;
26562;SDS011;14217;50.986;5.826;2023-06-26T03:18:06;2.90;;;2.70;;
26562;SDS011;14217;50.986;5.826;2023-06-26T03:23:08;2.58;;;2.00;;
26562;SDS011;14217;50.986;5.826;2023-06-26T03:28:10;1.95;;;1.63;;
26562;SDS011;14217;50.986;5.826;2023-06-26T03:33:12;9.07;;;2.30;;
26562;SDS011;14217;50.986;5.826;2023-06-26T03:38:14;2.78;;;1.83;;
26562;SDS011;14217;50.986;5.826;2023-06-26T03:43:16;2.80;;;2.35;;
26562;SDS011;14217;50.986;5.826;2023-06-26T03:48:18;3.03;;;2.58;;
26562;SDS011;14217;50.986;5.826;2023-06-26T03:53:20;2.15;;;1.95;;
26562;SDS011;14217;50.986;5.826;2023-06-26T03:58:22;3.33;;;2.28;;
26562;SDS011;14217;50.986;5.826;2023-06-26T04:03:24;1.88;;;1.77;;
26562;SDS011;14217;50.986;5.826;2023-06-26T04:08:26;2.55;;;2.35;;
26562;SDS011;14217;50.986;5.826;2023-06-26T04:13:28;2.42;;;1.70;;
26562;SDS011;14217;50.986;5.826;2023-06-26T04:18:30;3.22;;;1.90;;
26562;SDS011;14217;50.986;5.826;2023-06-26T04:23:32;2.33;;;2.13;;
26562;SDS011;14217;50.986;5.826;2023-06-26T04:28:34;2.78;;;2.15;;
26562;SDS011;14217;50.986;5.826;2023-06-26T04:33:37;2.50;;;2.30;;
26562;SDS011;14217;50.986;5.826;2023-06-26T04:38:43;1.73;;;1.48;;
26562;SDS011;14217;50.986;5.826;2023-06-26T04:43:45;4.93;;;2.17;;
26562;SDS011;14217;50.986;5.826;2023-06-26T04:48:47;2.28;;;1.77;;
26562;SDS011;14217;50.986;5.826;2023-06-26T04:53:49;2.72;;;2.00;;
26562;SDS011;14217;50.986;5.826;2023-06-26T04:58:50;2.33;;;1.95;;
26562;SDS011;14217;50.986;5.826;2023-06-26T05:03:52;2.40;;;1.65;;
26562;SDS011;14217;50.986;5.826;2023-06-26T05:08:54;2.95;;;1.88;;
26562;SDS011;14217;50.986;5.826;2023-06-26T05:13:56;4.93;;;2.30;;
26562;SDS011;14217;50.986;5.826;2023-06-26T05:18:58;2.00;;;1.80;;
26562;SDS011;14217;50.986;5.826;2023-06-26T05:24:00;3.33;;;1.90;;
26562;SDS011;14217;50.986;5.826;2023-06-26T05:29:07;6.82;;;1.30;;
26562;SDS011;14217;50.986;5.826;2023-06-26T05:34:09;3.10;;;1.55;;
26562;SDS011;14217;50.986;5.826;2023-06-26T05:39:12;2.33;;;1.58;;
26562;SDS011;14217;50.986;5.826;2023-06-26T05:44:14;3.78;;;2.00;;
26562;SDS011;14217;50.986;5.826;2023-06-26T05:49:16;2.83;;;2.10;;
26562;SDS011;14217;50.986;5.826;2023-06-26T05:54:18;4.55;;;2.13;;
26562;SDS011;14217;50.986;5.826;2023-06-26T05:59:20;5.53;;;2.35;;
26562;SDS011;14217;50.986;5.826;2023-06-26T06:04:23;5.10;;;2.30;;
26562;SDS011;14217;50.986;5.826;2023-06-26T06:09:25;4.80;;;2.05;;
26562;SDS011;14217;50.986;5.826;2023-06-26T06:14:27;4.05;;;2.05;;
26562;SDS011;14217;50.986;5.826;2023-06-26T06:19:30;3.83;;;1.80;;
26562;SDS011;14217;50.986;5.826;2023-06-26T06:24:32;2.50;;;1.95;;
26562;SDS011;14217;50.986;5.826;2023-06-26T06:29:34;3.25;;;2.30;;
26562;SDS011;14217;50.986;5.826;2023-06-26T06:34:35;4.78;;;1.90;;
26562;SDS011;14217;50.986;5.826;2023-06-26T06:39:37;2.83;;;2.10;;
26562;SDS011;14217;50.986;5.826;2023-06-26T06:44:39;6.97;;;1.92;;
26562;SDS011;14217;50.986;5.826;2023-06-26T06:49:41;8.10;;;1.77;;
26562;SDS011;14217;50.986;5.826;2023-06-26T06:54:53;5.32;;;2.40;;
26562;SDS011;14217;50.986;5.826;2023-06-26T06:59:56;5.43;;;1.73;;
26562;SDS011;14217;50.986;5.826;2023-06-26T07:04:58;3.08;;;1.67;;
26562;SDS011;14217;50.986;5.826;2023-06-26T07:10:01;8.75;;;1.92;;
26562;SDS011;14217;50.986;5.826;2023-06-26T07:15:06;1.60;;;1.48;;
26562;SDS011;14217;50.986;5.826;2023-06-26T07:20:08;2.72;;;1.77;;
26562;SDS011;14217;50.986;5.826;2023-06-26T07:25:16;7.18;;;2.92;;
26562;SDS011;14217;50.986;5.826;2023-06-26T07:30:18;7.15;;;2.55;;
26562;SDS011;14217;50.986;5.826;2023-06-26T07:35:20;6.03;;;1.85;;
26562;SDS011;14217;50.986;5.826;2023-06-26T07:40:23;5.13;;;1.85;;
26562;SDS011;14217;50.986;5.826;2023-06-26T07:45:25;4.85;;;2.15;;
26562;SDS011;14217;50.986;5.826;2023-06-26T07:50:27;3.42;;;1.40;;
26562;SDS011;14217;50.986;5.826;2023-06-26T07:55:29;10.88;;;2.28;;
26562;SDS011;14217;50.986;5.826;2023-06-26T08:00:31;4.68;;;1.58;;
26562;SDS011;14217;50.986;5.826;2023-06-26T08:05:33;5.90;;;1.60;;
26562;SDS011;14217;50.986;5.826;2023-06-26T08:10:35;5.15;;;2.33;;
26562;SDS011;14217;50.986;5.826;2023-06-26T08:15:38;7.50;;;1.70;;
26562;SDS011;14217;50.986;5.826;2023-06-26T08:20:40;8.73;;;1.88;;
26562;SDS011;14217;50.986;5.826;2023-06-26T08:25:42;11.50;;;2.10;;
26562;SDS011;14217;50.986;5.826;2023-06-26T08:30:44;4.22;;;1.58;;
26562;SDS011;14217;50.986;5.826;2023-06-26T08:35:47;12.23;;;1.65;;
26562;SDS011;14217;50.986;5.826;2023-06-26T08:40:49;8.68;;;1.98;;
26562;SDS011;14217;50.986;5.826;2023-06-26T08:45:51;6.55;;;1.73;;
26562;SDS011;14217;50.986;5.826;2023-06-26T08:50:53;3.92;;;1.33;;
26562;SDS011;14217;50.986;5.826;2023-06-26T08:55:57;4.10;;;1.55;;
26562;SDS011;14217;50.986;5.826;2023-06-26T09:00:59;6.97;;;1.77;;
26562;SDS011;14217;50.986;5.826;2023-06-26T09:06:02;3.28;;;1.42;;
26562;SDS011;14217;50.986;5.826;2023-06-26T09:11:04;12.60;;;1.40;;
26562;SDS011;14217;50.986;5.826;2023-06-26T09:16:07;11.35;;;1.98;;
26562;SDS011;14217;50.986;5.826;2023-06-26T09:21:09;5.20;;;1.80;;
26562;SDS011;14217;50.986;5.826;2023-06-26T09:26:13;2.97;;;1.10;;
26562;SDS011;14217;50.986;5.826;2023-06-26T09:31:16;2.50;;;1.30;;
26562;SDS011;14217;50.986;5.826;2023-06-26T09:36:38;2.35;;;1.23;;
26562;SDS011;14217;50.986;5.826;2023-06-26T09:41:43;3.38;;;0.90;;
26562;SDS011;14217;50.986;5.826;2023-06-26T09:46:46;2.83;;;1.48;;
26562;SDS011;14217;50.986;5.826;2023-06-26T09:51:48;2.88;;;1.38;;
26562;SDS011;14217;50.986;5.826;2023-06-26T09:56:51;2.85;;;1.10;;
26562;SDS011;14217;50.986;5.826;2023-06-26T10:01:58;2.72;;;1.13;;
26562;SDS011;14217;50.986;5.826;2023-06-26T10:07:01;1.75;;;0.90;;
26562;SDS011;14217;50.986;5.826;2023-06-26T10:12:18;1.98;;;1.20;;
26562;SDS011;14217;50.986;5.826;2023-06-26T10:17:24;15.10;;;1.48;;
26562;SDS011;14217;50.986;5.826;2023-06-26T10:22:29;2.08;;;0.63;;
26562;SDS011;14217;50.986;5.826;2023-06-26T10:27:36;2.55;;;1.25;;
26562;SDS011;14217;50.986;5.826;2023-06-26T10:32:43;1.58;;;0.68;;
26562;SDS011;14217;50.986;5.826;2023-06-26T10:37:47;2.33;;;0.70;;
26562;SDS011;14217;50.986;5.826;2023-06-26T10:42:50;1.08;;;0.65;;
26562;SDS011;14217;50.986;5.826;2023-06-26T10:47:52;5.68;;;1.00;;
26562;SDS011;14217;50.986;5.826;2023-06-26T10:58:30;4.78;;;0.70;;
26562;SDS011;14217;50.986;5.826;2023-06-26T11:03:33;4.20;;;0.70;;
26562;SDS011;14217;50.986;5.826;2023-06-26T11:08:47;0.80;;;0.60;;
26562;SDS011;14217;50.986;5.826;2023-06-26T11:13:55;1.20;;;0.82;;
26562;SDS011;14217;50.986;5.826;2023-06-26T11:18:58;3.30;;;1.00;;
26562;SDS011;14217;50.986;5.826;2023-06-26T11:24:00;0.90;;;0.60;;
26562;SDS011;14217;50.986;5.826;2023-06-26T11:29:04;2.08;;;0.85;;
26562;SDS011;14217;50.986;5.826;2023-06-26T11:34:06;1.05;;;0.88;;
26562;SDS011;14217;50.986;5.826;2023-06-26T11:39:13;1.00;;;0.60;;
26562;SDS011;14217;50.986;5.826;2023-06-26T11:44:15;2.13;;;0.80;;
26562;SDS011;14217;50.986;5.826;2023-06-26T11:49:22;2.13;;;0.63;;
26562;SDS011;14217;50.986;5.826;2023-06-26T11:54:25;1.15;;;0.52;;
26562;SDS011;14217;50.986;5.826;2023-06-26T11:59:35;3.20;;;0.68;;
26562;SDS011;14217;50.986;5.826;2023-06-26T12:04:42;2.10;;;0.88;;
26562;SDS011;14217;50.986;5.826;2023-06-26T12:09:46;2.38;;;0.98;;
26562;SDS011;14217;50.986;5.826;2023-06-26T12:14:50;1.75;;;0.82;;
26562;SDS011;14217;50.986;5.826;2023-06-26T12:19:53;2.25;;;0.82;;
26562;SDS011;14217;50.986;5.826;2023-06-26T12:24:56;4.57;;;0.82;;
26562;SDS011;14217;50.986;5.826;2023-06-26T12:29:58;3.22;;;0.70;;
26562;SDS011;14217;50.986;5.826;2023-06-26T12:35:00;3.30;;;1.52;;
26562;SDS011;14217;50.986;5.826;2023-06-26T12:40:03;6.15;;;1.13;;
26562;SDS011;14217;50.986;5.826;2023-06-26T12:45:11;0.75;;;0.57;;
26562;SDS011;14217;50.986;5.826;2023-06-26T12:50:36;1.48;;;0.73;;
26562;SDS011;14217;50.986;5.826;2023-06-26T12:55:40;1.70;;;0.60;;
26562;SDS011;14217;50.986;5.826;2023-06-26T13:00:41;0.95;;;0.57;;
26562;SDS011;14217;50.986;5.826;2023-06-26T13:05:44;2.90;;;1.13;;
26562;SDS011;14217;50.986;5.826;2023-06-26T13:10:46;2.58;;;1.02;;
26562;SDS011;14217;50.986;5.826;2023-06-26T13:15:48;1.45;;;0.73;;
26562;SDS011;14217;50.986;5.826;2023-06-26T13:20:50;9.73;;;0.95;;
26562;SDS011;14217;50.986;5.826;2023-06-26T13:25:52;5.55;;;1.00;;
26562;SDS011;14217;50.986;5.826;2023-06-26T13:30:55;5.93;;;1.20;;
26562;SDS011;14217;50.986;5.826;2023-06-26T13:35:57;2.22;;;1.00;;
26562;SDS011;14217;50.986;5.826;2023-06-26T13:41:00;1.83;;;0.73;;
26562;SDS011;14217;50.986;5.826;2023-06-26T13:46:03;1.75;;;0.70;;
26562;SDS011;14217;50.986;5.826;2023-06-26T13:51:04;1.25;;;0.80;;
26562;SDS011;14217;50.986;5.826;2023-06-26T13:56:07;1.80;;;0.60;;
26562;SDS011;14217;50.986;5.826;2023-06-26T14:01:09;0.82;;;0.60;;
26562;SDS011;14217;50.986;5.826;2023-06-26T14:06:11;3.00;;;0.60;;
26562;SDS011;14217;50.986;5.826;2023-06-26T14:11:13;7.28;;;1.02;;
26562;SDS011;14217;50.986;5.826;2023-06-26T14:16:17;0.80;;;0.75;;
26562;SDS011;14217;50.986;5.826;2023-06-26T14:21:20;1.67;;;0.88;;
26562;SDS011;14217;50.986;5.826;2023-06-26T14:26:22;1.33;;;0.73;;
26562;SDS011;14217;50.986;5.826;2023-06-26T14:31:25;0.85;;;0.63;;
26562;SDS011;14217;50.986;5.826;2023-06-26T14:36:27;2.55;;;0.80;;
26562;SDS011;14217;50.986;5.826;2023-06-26T14:41:30;7.03;;;0.68;;
26562;SDS011;14217;50.986;5.826;2023-06-26T14:46:32;2.97;;;1.00;;
26562;SDS011;14217;50.986;5.826;2023-06-26T14:51:35;4.57;;;0.77;;
26562;SDS011;14217;50.986;5.826;2023-06-26T14:56:37;1.35;;;0.50;;
26562;SDS011;14217;50.986;5.826;2023-06-26T15:01:39;2.05;;;1.13;;
26562;SDS011;14217;50.986;5.826;2023-06-26T15:06:41;0.80;;;0.50;;
26562;SDS011;14217;50.986;5.826;2023-06-26T15:11:43;1.23;;;0.70;;
26562;SDS011;14217;50.986;5.826;2023-06-26T15:16:45;1.40;;;0.70;;
26562;SDS011;14217;50.986;5.826;2023-06-26T15:21:47;3.17;;;1.00;;
26562;SDS011;14217;50.986;5.826;2023-06-26T15:26:49;3.13;;;0.65;;
26562;SDS011;14217;50.986;5.826;2023-06-26T15:31:52;1.85;;;0.95;;
26562;SDS011;14217;50.986;5.826;2023-06-26T15:36:55;2.38;;;0.60;;
26562;SDS011;14217;50.986;5.826;2023-06-26T15:41:58;2.22;;;1.00;;
26562;SDS011;14217;50.986;5.826;2023-06-26T15:47:00;1.05;;;0.95;;
26562;SDS011;14217;50.986;5.826;2023-06-26T15:52:02;2.05;;;0.63;;
26562;SDS011;14217;50.986;5.826;2023-06-26T15:57:04;10.82;;;1.23;;
26562;SDS011;14217;50.986;5.826;2023-06-26T16:02:07;3.50;;;0.82;;
26562;SDS011;14217;50.986;5.826;2023-06-26T16:07:09;4.32;;;0.73;;
26562;SDS011;14217;50.986;5.826;2023-06-26T16:12:11;1.83;;;0.68;;
26562;SDS011;14217;50.986;5.826;2023-06-26T16:17:13;1.88;;;1.10;;
26562;SDS011;14217;50.986;5.826;2023-06-26T16:22:15;1.98;;;0.98;;
26562;SDS011;14217;50.986;5.826;2023-06-26T16:27:17;1.73;;;0.70;;
26562;SDS011;14217;50.986;5.826;2023-06-26T16:32:19;1.25;;;0.60;;
26562;SDS011;14217;50.986;5.826;2023-06-26T16:37:21;2.15;;;0.90;;
26562;SDS011;14217;50.986;5.826;2023-06-26T16:42:23;3.75;;;0.80;;
26562;SDS011;14217;50.986;5.826;2023-06-26T16:47:25;5.30;;;0.80;;
26562;SDS011;14217;50.986;5.826;2023-06-26T16:52:30;19.50;;;1.45;;
26562;SDS011;14217;50.986;5.826;2023-06-26T16:57:32;3.35;;;0.70;;
26562;SDS011;14217;50.986;5.826;2023-06-26T17:02:34;2.72;;;0.60;;
26562;SDS011;14217;50.986;5.826;2023-06-26T17:07:37;2.85;;;0.60;;
26562;SDS011;14217;50.986;5.826;2023-06-26T17:12:39;2.60;;;1.10;;
26562;SDS011;14217;50.986;5.826;2023-06-26T17:17:42;1.77;;;0.47;;
26562;SDS011;14217;50.986;5.826;2023-06-26T17:22:44;1.13;;;0.50;;
26562;SDS011;14217;50.986;5.826;2023-06-26T17:27:48;3.65;;;0.70;;
26562;SDS011;14217;50.986;5.826;2023-06-26T17:32:51;1.55;;;0.60;;
26562;SDS011;14217;50.986;5.826;2023-06-26T17:37:53;1.85;;;0.85;;
26562;SDS011;14217;50.986;5.826;2023-06-26T17:42:55;3.30;;;0.70;;
26562;SDS011;14217;50.986;5.826;2023-06-26T17:47:57;0.47;;;0.47;;
26562;SDS011;14217;50.986;5.826;2023-06-26T17:52:59;2.17;;;0.47;;
26562;SDS011;14217;50.986;5.826;2023-06-26T17:58:01;2.63;;;0.88;;
26562;SDS011;14217;50.986;5.826;2023-06-26T18:03:04;0.75;;;0.70;;
26562;SDS011;14217;50.986;5.826;2023-06-26T18:08:06;2.33;;;0.55;;
26562;SDS011;14217;50.986;5.826;2023-06-26T18:13:08;0.93;;;0.65;;
26562;SDS011;14217;50.986;5.826;2023-06-26T18:18:10;0.85;;;0.52;;
26562;SDS011;14217;50.986;5.826;2023-06-26T18:23:13;2.88;;;0.85;;
26562;SDS011;14217;50.986;5.826;2023-06-26T18:28:15;1.15;;;0.47;;
26562;SDS011;14217;50.986;5.826;2023-06-26T18:33:17;0.95;;;0.52;;
26562;SDS011;14217;50.986;5.826;2023-06-26T18:38:19;2.63;;;0.50;;
26562;SDS011;14217;50.986;5.826;2023-06-26T18:43:21;0.85;;;0.43;;
26562;SDS011;14217;50.986;5.826;2023-06-26T18:48:23;1.77;;;0.95;;
26562;SDS011;14217;50.986;5.826;2023-06-26T18:53:25;1.17;;;0.75;;
26562;SDS011;14217;50.986;5.826;2023-06-26T18:58:28;3.15;;;0.80;;
26562;SDS011;14217;50.986;5.826;2023-06-26T19:03:30;2.40;;;0.80;;
26562;SDS011;14217;50.986;5.826;2023-06-26T19:08:32;3.05;;;0.80;;
26562;SDS011;14217;50.986;5.826;2023-06-26T19:13:34;1.48;;;0.88;;
26562;SDS011;14217;50.986;5.826;2023-06-26T19:18:36;1.63;;;0.65;;
26562;SDS011;14217;50.986;5.826;2023-06-26T19:23:38;1.80;;;0.60;;
26562;SDS011;14217;50.986;5.826;2023-06-26T19:28:40;3.70;;;0.73;;
26562;SDS011;14217;50.986;5.826;2023-06-26T19:33:42;1.70;;;1.02;;
26562;SDS011;14217;50.986;5.826;2023-06-26T19:38:44;2.45;;;0.75;;
26562;SDS011;14217;50.986;5.826;2023-06-26T19:43:46;2.00;;;0.77;;
26562;SDS011;14217;50.986;5.826;2023-06-26T19:48:49;16.27;;;1.63;;
26562;SDS011;14217;50.986;5.826;2023-06-26T19:53:51;3.00;;;0.70;;
26562;SDS011;14217;50.986;5.826;2023-06-26T19:58:53;2.55;;;1.05;;
26562;SDS011;14217;50.986;5.826;2023-06-26T20:03:55;2.08;;;0.90;;
26562;SDS011;14217;50.986;5.826;2023-06-26T20:08:57;3.47;;;0.80;;
26562;SDS011;14217;50.986;5.826;2023-06-26T20:14:00;2.20;;;0.73;;
26562;SDS011;14217;50.986;5.826;2023-06-26T20:19:02;1.00;;;0.63;;
26562;SDS011;14217;50.986;5.826;2023-06-26T20:24:07;1.63;;;0.90;;
26562;SDS011;14217;50.986;5.826;2023-06-26T20:29:09;2.03;;;0.77;;
26562;SDS011;14217;50.986;5.826;2023-06-26T20:34:11;10.85;;;0.70;;
26562;SDS011;14217;50.986;5.826;2023-06-26T20:39:13;1.17;;;0.50;;
26562;SDS011;14217;50.986;5.826;2023-06-26T20:44:16;2.22;;;0.50;;
26562;SDS011;14217;50.986;5.826;2023-06-26T20:49:18;6.07;;;0.50;;
26562;SDS011;14217;50.986;5.826;2023-06-26T20:54:20;2.28;;;0.50;;
26562;SDS011;14217;50.986;5.826;2023-06-26T20:59:22;2.60;;;0.70;;
26562;SDS011;14217;50.986;5.826;2023-06-26T21:04:24;1.23;;;0.60;;
26562;SDS011;14217;50.986;5.826;2023-06-26T21:09:26;1.33;;;0.50;;
26562;SDS011;14217;50.986;5.826;2023-06-26T21:14:28;2.30;;;0.82;;
26562;SDS011;14217;50.986;5.826;2023-06-26T21:19:30;0.88;;;0.47;;
26562;SDS011;14217;50.986;5.826;2023-06-26T21:24:33;1.73;;;0.65;;
26562;SDS011;14217;50.986;5.826;2023-06-26T21:29:34;2.67;;;0.70;;
26562;SDS011;14217;50.986;5.826;2023-06-26T21:34:36;1.30;;;0.75;;
26562;SDS011;14217;50.986;5.826;2023-06-26T21:39:38;5.82;;;1.08;;
26562;SDS011;14217;50.986;5.826;2023-06-26T21:44:40;0.50;;;0.50;;
26562;SDS011;14217;50.986;5.826;2023-06-26T21:49:43;0.85;;;0.38;;
26562;SDS011;14217;50.986;5.826;2023-06-26T21:54:45;3.95;;;0.75;;
26562;SDS011;14217;50.986;5.826;2023-06-26T21:59:46;3.03;;;0.68;;
26562;SDS011;14217;50.986;5.826;2023-06-26T22:04:48;0.40;;;0.35;;
26562;SDS011;14217;50.986;5.826;2023-06-26T22:09:50;0.68;;;0.40;;
26562;SDS011;14217;50.986;5.826;2023-06-26T22:14:53;0.63;;;0.47;;
26562;SDS011;14217;50.986;5.826;2023-06-26T22:19:55;0.35;;;0.35;;
26562;SDS011;14217;50.986;5.826;2023-06-26T22:24:58;1.45;;;0.65;;
26562;SDS011;14217;50.986;5.826;2023-06-26T22:30:00;1.95;;;0.85;;
26562;SDS011;14217;50.986;5.826;2023-06-26T22:35:02;1.70;;;0.52;;
26562;SDS011;14217;50.986;5.826;2023-06-26T22:40:05;0.70;;;0.68;;
26562;SDS011;14217;50.986;5.826;2023-06-26T22:45:11;1.08;;;0.40;;
26562;SDS011;14217;50.986;5.826;2023-06-26T22:50:13;1.20;;;0.60;;
26562;SDS011;14217;50.986;5.826;2023-06-26T22:55:15;1.30;;;0.77;;
26562;SDS011;14217;50.986;5.826;2023-06-26T23:00:17;1.80;;;0.70;;
26562;SDS011;14217;50.986;5.826;2023-06-26T23:05:20;0.98;;;0.60;;
26562;SDS011;14217;50.986;5.826;2023-06-26T23:10:21;1.60;;;0.68;;
26562;SDS011;14217;50.986;5.826;2023-06-26T23:15:23;1.17;;;0.60;;
26562;SDS011;14217;50.986;5.826;2023-06-26T23:20:25;0.68;;;0.45;;
26562;SDS011;14217;50.986;5.826;2023-06-26T23:25:28;0.90;;;0.45;;
26562;SDS011;14217;50.986;5.826;2023-06-26T23:30:36;2.83;;;0.50;;
26562;SDS011;14217;50.986;5.826;2023-06-26T23:35:37;0.47;;;0.40;;
26562;SDS011;14217;50.986;5.826;2023-06-26T23:40:41;1.38;;;0.60;;
26562;SDS011;14217;50.986;5.826;2023-06-26T23:45:43;2.58;;;0.70;;
26562;SDS011;14217;50.986;5.826;2023-06-26T23:50:47;0.88;;;0.68;;
26562;SDS011;14217;50.986;5.826;2023-06-26T23:55:49;1.40;;;0.68;;
